sensor_id;sensor_type;location;lat;lon;timestamp;P1;durP1;ratioP1;P2;durP2;ratioP2
11171;SDS011;5642;50.830;12.082;2024-02-16T00:00:17;2.08;;;1.88;;
11171;SDS011;5642;50.830;12.082;2024-02-16T00:02:47;2.17;;;1.60;;
11171;SDS011;5642;50.830;12.082;2024-02-16T00:05:14;1.70;;;1.60;;
11171;SDS011;5642;50.830;12.082;2024-02-16T00:07:40;1.70;;;1.60;;
11171;SDS011;5642;50.830;12.082;2024-02-16T00:10:09;1.40;;;1.30;;
11171;SDS011;5642;50.830;12.082;2024-02-16T00:12:35;1.85;;;1.20;;
11171;SDS011;5642;50.830;12.082;2024-02-16T00:15:02;1.48;;;1.38;;
11171;SDS011;5642;50.830;12.082;2024-02-16T00:17:29;1.83;;;1.40;;
11171;SDS011;5642;50.830;12.082;2024-02-16T00:19:56;1.35;;;1.25;;
11171;SDS011;5642;50.830;12.082;2024-02-16T00:22:24;1.40;;;1.30;;
11171;SDS011;5642;50.830;12.082;2024-02-16T00:24:50;1.40;;;1.30;;
11171;SDS011;5642;50.830;12.082;2024-02-16T00:27:16;1.20;;;1.10;;
11171;SDS011;5642;50.830;12.082;2024-02-16T00:29:43;2.05;;;1.15;;
11171;SDS011;5642;50.830;12.082;2024-02-16T00:32:10;1.17;;;1.10;;
11171;SDS011;5642;50.830;12.082;2024-02-16T00:34:37;1.45;;;1.23;;
11171;SDS011;5642;50.830;12.082;2024-02-16T00:37:06;1.42;;;1.33;;
11171;SDS011;5642;50.830;12.082;2024-02-16T00:39:38;1.00;;;1.00;;
11171;SDS011;5642;50.830;12.082;2024-02-16T00:42:09;1.20;;;1.10;;
11171;SDS011;5642;50.830;12.082;2024-02-16T00:44:37;1.40;;;1.10;;
11171;SDS011;5642;50.830;12.082;2024-02-16T00:47:04;1.17;;;1.08;;
11171;SDS011;5642;50.830;12.082;2024-02-16T00:49:36;1.35;;;1.08;;
11171;SDS011;5642;50.830;12.082;2024-02-16T00:52:03;1.20;;;1.20;;
11171;SDS011;5642;50.830;12.082;2024-02-16T00:54:33;1.20;;;1.10;;
11171;SDS011;5642;50.830;12.082;2024-02-16T00:57:00;1.05;;;1.05;;
11171;SDS011;5642;50.830;12.082;2024-02-16T00:59:28;1.38;;;1.10;;
11171;SDS011;5642;50.830;12.082;2024-02-16T01:01:54;1.25;;;1.15;;
11171;SDS011;5642;50.830;12.082;2024-02-16T01:04:20;0.90;;;0.90;;
11171;SDS011;5642;50.830;12.082;2024-02-16T01:06:48;1.45;;;1.00;;
11171;SDS011;5642;50.830;12.082;2024-02-16T01:09:16;1.00;;;1.00;;
11171;SDS011;5642;50.830;12.082;2024-02-16T01:11:43;1.00;;;1.00;;
11171;SDS011;5642;50.830;12.082;2024-02-16T01:14:09;1.27;;;1.13;;
11171;SDS011;5642;50.830;12.082;2024-02-16T01:16:36;0.93;;;0.93;;
11171;SDS011;5642;50.830;12.082;2024-02-16T01:19:02;1.00;;;1.00;;
11171;SDS011;5642;50.830;12.082;2024-02-16T01:21:29;0.75;;;0.75;;
11171;SDS011;5642;50.830;12.082;2024-02-16T01:23:56;2.33;;;1.10;;
11171;SDS011;5642;50.830;12.082;2024-02-16T01:26:25;0.90;;;0.90;;
11171;SDS011;5642;50.830;12.082;2024-02-16T01:28:51;1.20;;;1.10;;
11171;SDS011;5642;50.830;12.082;2024-02-16T01:31:17;0.80;;;0.77;;
11171;SDS011;5642;50.830;12.082;2024-02-16T01:33:44;0.80;;;0.80;;
11171;SDS011;5642;50.830;12.082;2024-02-16T01:36:11;1.05;;;0.95;;
11171;SDS011;5642;50.830;12.082;2024-02-16T01:38:37;0.80;;;0.80;;
11171;SDS011;5642;50.830;12.082;2024-02-16T01:41:05;1.13;;;1.02;;
11171;SDS011;5642;50.830;12.082;2024-02-16T01:43:33;0.70;;;0.70;;
11171;SDS011;5642;50.830;12.082;2024-02-16T01:46:01;1.60;;;0.88;;
11171;SDS011;5642;50.830;12.082;2024-02-16T01:48:27;0.73;;;0.73;;
11171;SDS011;5642;50.830;12.082;2024-02-16T01:50:55;1.33;;;0.80;;
11171;SDS011;5642;50.830;12.082;2024-02-16T01:53:23;0.80;;;0.80;;
11171;SDS011;5642;50.830;12.082;2024-02-16T01:55:49;0.88;;;0.88;;
11171;SDS011;5642;50.830;12.082;2024-02-16T01:58:17;1.38;;;1.00;;
11171;SDS011;5642;50.830;12.082;2024-02-16T02:00:44;0.95;;;0.90;;
11171;SDS011;5642;50.830;12.082;2024-02-16T02:03:10;0.80;;;0.80;;
11171;SDS011;5642;50.830;12.082;2024-02-16T02:05:44;0.82;;;0.82;;
11171;SDS011;5642;50.830;12.082;2024-02-16T02:08:12;0.90;;;0.90;;
11171;SDS011;5642;50.830;12.082;2024-02-16T02:10:40;0.90;;;0.75;;
11171;SDS011;5642;50.830;12.082;2024-02-16T02:13:06;1.17;;;1.00;;
11171;SDS011;5642;50.830;12.082;2024-02-16T02:15:33;1.48;;;1.00;;
11171;SDS011;5642;50.830;12.082;2024-02-16T02:18:00;1.30;;;0.90;;
11171;SDS011;5642;50.830;12.082;2024-02-16T02:20:26;1.02;;;1.00;;
11171;SDS011;5642;50.830;12.082;2024-02-16T02:22:53;0.80;;;0.80;;
11171;SDS011;5642;50.830;12.082;2024-02-16T02:25:19;1.08;;;0.82;;
11171;SDS011;5642;50.830;12.082;2024-02-16T02:27:47;0.80;;;0.80;;
11171;SDS011;5642;50.830;12.082;2024-02-16T02:30:13;0.90;;;0.90;;
11171;SDS011;5642;50.830;12.082;2024-02-16T02:32:39;0.80;;;0.80;;
11171;SDS011;5642;50.830;12.082;2024-02-16T02:35:05;1.00;;;1.00;;
11171;SDS011;5642;50.830;12.082;2024-02-16T02:37:32;0.73;;;0.73;;
11171;SDS011;5642;50.830;12.082;2024-02-16T02:39:59;1.00;;;1.00;;
11171;SDS011;5642;50.830;12.082;2024-02-16T02:42:25;1.05;;;0.85;;
11171;SDS011;5642;50.830;12.082;2024-02-16T02:44:51;1.63;;;1.00;;
11171;SDS011;5642;50.830;12.082;2024-02-16T02:47:17;1.00;;;1.00;;
11171;SDS011;5642;50.830;12.082;2024-02-16T02:49:43;1.17;;;0.90;;
11171;SDS011;5642;50.830;12.082;2024-02-16T02:52:09;1.33;;;0.90;;
11171;SDS011;5642;50.830;12.082;2024-02-16T02:54:36;0.98;;;0.98;;
11171;SDS011;5642;50.830;12.082;2024-02-16T02:57:02;1.05;;;0.95;;
11171;SDS011;5642;50.830;12.082;2024-02-16T02:59:31;1.50;;;1.00;;
11171;SDS011;5642;50.830;12.082;2024-02-16T03:01:58;0.80;;;0.80;;
11171;SDS011;5642;50.830;12.082;2024-02-16T03:04:24;0.82;;;0.80;;
11171;SDS011;5642;50.830;12.082;2024-02-16T03:06:53;0.90;;;0.90;;
11171;SDS011;5642;50.830;12.082;2024-02-16T03:09:21;0.80;;;0.80;;
11171;SDS011;5642;50.830;12.082;2024-02-16T03:11:49;0.90;;;0.90;;
11171;SDS011;5642;50.830;12.082;2024-02-16T03:14:17;1.02;;;1.00;;
11171;SDS011;5642;50.830;12.082;2024-02-16T03:16:44;1.10;;;1.10;;
11171;SDS011;5642;50.830;12.082;2024-02-16T03:19:10;1.20;;;1.00;;
11171;SDS011;5642;50.830;12.082;2024-02-16T03:21:37;0.90;;;0.90;;
11171;SDS011;5642;50.830;12.082;2024-02-16T03:24:03;1.13;;;1.02;;
11171;SDS011;5642;50.830;12.082;2024-02-16T03:26:31;1.27;;;1.17;;
11171;SDS011;5642;50.830;12.082;2024-02-16T03:28:58;3.97;;;1.02;;
11171;SDS011;5642;50.830;12.082;2024-02-16T03:31:24;0.80;;;0.80;;
11171;SDS011;5642;50.830;12.082;2024-02-16T03:33:51;1.23;;;1.13;;
11171;SDS011;5642;50.830;12.082;2024-02-16T03:36:18;1.20;;;1.10;;
11171;SDS011;5642;50.830;12.082;2024-02-16T03:38:46;1.70;;;1.35;;
11171;SDS011;5642;50.830;12.082;2024-02-16T03:41:20;1.23;;;1.13;;
11171;SDS011;5642;50.830;12.082;2024-02-16T03:43:50;0.93;;;0.93;;
11171;SDS011;5642;50.830;12.082;2024-02-16T03:46:17;1.25;;;1.15;;
11171;SDS011;5642;50.830;12.082;2024-02-16T03:48:44;1.92;;;1.33;;
11171;SDS011;5642;50.830;12.082;2024-02-16T03:51:10;1.00;;;1.00;;
11171;SDS011;5642;50.830;12.082;2024-02-16T03:53:36;1.90;;;1.20;;
11171;SDS011;5642;50.830;12.082;2024-02-16T03:56:03;1.20;;;1.10;;
11171;SDS011;5642;50.830;12.082;2024-02-16T03:58:31;1.20;;;1.10;;
11171;SDS011;5642;50.830;12.082;2024-02-16T04:00:58;1.25;;;1.10;;
11171;SDS011;5642;50.830;12.082;2024-02-16T04:03:25;0.98;;;0.98;;
11171;SDS011;5642;50.830;12.082;2024-02-16T04:05:51;1.00;;;1.00;;
11171;SDS011;5642;50.830;12.082;2024-02-16T04:08:19;1.33;;;1.23;;
11171;SDS011;5642;50.830;12.082;2024-02-16T04:10:46;1.30;;;1.20;;
11171;SDS011;5642;50.830;12.082;2024-02-16T04:13:13;1.00;;;1.00;;
11171;SDS011;5642;50.830;12.082;2024-02-16T04:15:41;1.30;;;1.20;;
11171;SDS011;5642;50.830;12.082;2024-02-16T04:18:07;1.13;;;1.08;;
11171;SDS011;5642;50.830;12.082;2024-02-16T04:20:34;1.10;;;0.80;;
11171;SDS011;5642;50.830;12.082;2024-02-16T04:23:01;1.30;;;0.98;;
11171;SDS011;5642;50.830;12.082;2024-02-16T04:25:27;0.98;;;0.98;;
11171;SDS011;5642;50.830;12.082;2024-02-16T04:27:55;1.20;;;1.10;;
11171;SDS011;5642;50.830;12.082;2024-02-16T04:30:22;1.33;;;1.10;;
11171;SDS011;5642;50.830;12.082;2024-02-16T04:32:49;1.23;;;1.13;;
11171;SDS011;5642;50.830;12.082;2024-02-16T04:35:17;0.80;;;0.80;;
11171;SDS011;5642;50.830;12.082;2024-02-16T04:37:45;1.00;;;1.00;;
11171;SDS011;5642;50.830;12.082;2024-02-16T04:40:15;1.15;;;1.05;;
11171;SDS011;5642;50.830;12.082;2024-02-16T04:42:41;1.27;;;1.10;;
11171;SDS011;5642;50.830;12.082;2024-02-16T04:45:10;1.10;;;1.00;;
11171;SDS011;5642;50.830;12.082;2024-02-16T04:47:37;1.10;;;1.00;;
11171;SDS011;5642;50.830;12.082;2024-02-16T04:50:03;0.85;;;0.85;;
11171;SDS011;5642;50.830;12.082;2024-02-16T04:52:31;0.70;;;0.70;;
11171;SDS011;5642;50.830;12.082;2024-02-16T04:54:57;1.08;;;1.00;;
11171;SDS011;5642;50.830;12.082;2024-02-16T04:57:23;0.80;;;0.80;;
11171;SDS011;5642;50.830;12.082;2024-02-16T04:59:49;0.93;;;0.90;;
11171;SDS011;5642;50.830;12.082;2024-02-16T05:02:17;0.95;;;0.95;;
11171;SDS011;5642;50.830;12.082;2024-02-16T05:04:44;2.28;;;1.45;;
11171;SDS011;5642;50.830;12.082;2024-02-16T05:07:10;1.20;;;1.10;;
11171;SDS011;5642;50.830;12.082;2024-02-16T05:09:38;2.67;;;1.08;;
11171;SDS011;5642;50.830;12.082;2024-02-16T05:12:06;0.90;;;0.90;;
11171;SDS011;5642;50.830;12.082;2024-02-16T05:14:32;1.13;;;1.02;;
11171;SDS011;5642;50.830;12.082;2024-02-16T05:16:59;0.90;;;0.90;;
11171;SDS011;5642;50.830;12.082;2024-02-16T05:19:26;1.15;;;1.00;;
11171;SDS011;5642;50.830;12.082;2024-02-16T05:21:53;1.10;;;1.00;;
11171;SDS011;5642;50.830;12.082;2024-02-16T05:24:21;1.00;;;0.90;;
11171;SDS011;5642;50.830;12.082;2024-02-16T05:26:48;1.10;;;1.00;;
11171;SDS011;5642;50.830;12.082;2024-02-16T05:29:14;1.05;;;1.02;;
11171;SDS011;5642;50.830;12.082;2024-02-16T05:31:42;1.30;;;1.20;;
11171;SDS011;5642;50.830;12.082;2024-02-16T05:34:10;1.15;;;1.05;;
11171;SDS011;5642;50.830;12.082;2024-02-16T05:36:38;1.40;;;1.30;;
11171;SDS011;5642;50.830;12.082;2024-02-16T05:39:06;1.30;;;1.20;;
11171;SDS011;5642;50.830;12.082;2024-02-16T05:41:47;1.38;;;1.13;;
11171;SDS011;5642;50.830;12.082;2024-02-16T05:44:15;1.20;;;1.05;;
11171;SDS011;5642;50.830;12.082;2024-02-16T05:46:44;1.35;;;1.20;;
11171;SDS011;5642;50.830;12.082;2024-02-16T05:49:11;1.38;;;1.27;;
11171;SDS011;5642;50.830;12.082;2024-02-16T05:51:39;1.30;;;1.20;;
11171;SDS011;5642;50.830;12.082;2024-02-16T05:54:11;1.25;;;1.15;;
11171;SDS011;5642;50.830;12.082;2024-02-16T05:56:37;1.35;;;1.25;;
11171;SDS011;5642;50.830;12.082;2024-02-16T05:59:06;1.10;;;1.10;;
11171;SDS011;5642;50.830;12.082;2024-02-16T06:01:32;1.00;;;1.00;;
11171;SDS011;5642;50.830;12.082;2024-02-16T06:04:01;1.20;;;1.20;;
11171;SDS011;5642;50.830;12.082;2024-02-16T06:06:27;1.00;;;1.00;;
11171;SDS011;5642;50.830;12.082;2024-02-16T06:08:53;1.50;;;1.00;;
11171;SDS011;5642;50.830;12.082;2024-02-16T06:11:20;1.52;;;1.40;;
11171;SDS011;5642;50.830;12.082;2024-02-16T06:13:47;1.02;;;1.00;;
11171;SDS011;5642;50.830;12.082;2024-02-16T06:16:17;1.20;;;1.10;;
11171;SDS011;5642;50.830;12.082;2024-02-16T06:18:45;1.13;;;1.02;;
11171;SDS011;5642;50.830;12.082;2024-02-16T06:21:12;1.00;;;1.00;;
11171;SDS011;5642;50.830;12.082;2024-02-16T06:23:41;1.45;;;1.20;;
11171;SDS011;5642;50.830;12.082;2024-02-16T06:26:07;1.35;;;1.25;;
11171;SDS011;5642;50.830;12.082;2024-02-16T06:28:36;1.27;;;1.15;;
11171;SDS011;5642;50.830;12.082;2024-02-16T06:31:03;1.25;;;1.15;;
11171;SDS011;5642;50.830;12.082;2024-02-16T06:33:30;1.00;;;1.00;;
11171;SDS011;5642;50.830;12.082;2024-02-16T06:35:57;1.70;;;1.17;;
11171;SDS011;5642;50.830;12.082;2024-02-16T06:38:29;1.00;;;1.00;;
11171;SDS011;5642;50.830;12.082;2024-02-16T06:40:55;1.13;;;1.05;;
11171;SDS011;5642;50.830;12.082;2024-02-16T06:43:33;1.50;;;1.40;;
11171;SDS011;5642;50.830;12.082;2024-02-16T06:46:01;1.30;;;1.20;;
11171;SDS011;5642;50.830;12.082;2024-02-16T06:48:30;2.55;;;1.20;;
11171;SDS011;5642;50.830;12.082;2024-02-16T06:51:00;1.20;;;1.10;;
11171;SDS011;5642;50.830;12.082;2024-02-16T06:53:32;1.10;;;1.10;;
11171;SDS011;5642;50.830;12.082;2024-02-16T06:56:01;1.40;;;1.30;;
11171;SDS011;5642;50.830;12.082;2024-02-16T06:58:34;1.40;;;1.30;;
11171;SDS011;5642;50.830;12.082;2024-02-16T07:01:05;1.50;;;1.40;;
11171;SDS011;5642;50.830;12.082;2024-02-16T07:03:33;1.73;;;1.63;;
11171;SDS011;5642;50.830;12.082;2024-02-16T07:06:03;1.50;;;1.40;;
11171;SDS011;5642;50.830;12.082;2024-02-16T07:08:33;1.40;;;1.30;;
11171;SDS011;5642;50.830;12.082;2024-02-16T07:11:02;1.40;;;1.30;;
11171;SDS011;5642;50.830;12.082;2024-02-16T07:13:42;1.42;;;1.33;;
11171;SDS011;5642;50.830;12.082;2024-02-16T07:16:15;1.40;;;1.30;;
11171;SDS011;5642;50.830;12.082;2024-02-16T07:18:44;1.27;;;1.15;;
11171;SDS011;5642;50.830;12.082;2024-02-16T07:21:15;1.23;;;1.13;;
11171;SDS011;5642;50.830;12.082;2024-02-16T07:23:47;1.55;;;1.30;;
11171;SDS011;5642;50.830;12.082;2024-02-16T07:26:16;1.30;;;1.20;;
11171;SDS011;5642;50.830;12.082;2024-02-16T07:28:51;1.20;;;1.10;;
11171;SDS011;5642;50.830;12.082;2024-02-16T07:31:33;0.90;;;0.90;;
11171;SDS011;5642;50.830;12.082;2024-02-16T07:34:07;1.17;;;1.08;;
11171;SDS011;5642;50.830;12.082;2024-02-16T07:36:40;1.30;;;1.20;;
11171;SDS011;5642;50.830;12.082;2024-02-16T07:39:08;2.40;;;2.20;;
11171;SDS011;5642;50.830;12.082;2024-02-16T07:41:40;3.85;;;3.35;;
11171;SDS011;5642;50.830;12.082;2024-02-16T07:44:24;3.55;;;2.53;;
11171;SDS011;5642;50.830;12.082;2024-02-16T07:47:07;3.40;;;2.85;;
11171;SDS011;5642;50.830;12.082;2024-02-16T07:49:46;3.10;;;2.33;;
11171;SDS011;5642;50.830;12.082;2024-02-16T07:54:59;2.75;;;2.15;;
11171;SDS011;5642;50.830;12.082;2024-02-16T08:00:16;1.77;;;1.67;;
11171;SDS011;5642;50.830;12.082;2024-02-16T08:03:11;1.88;;;1.30;;
11171;SDS011;5642;50.830;12.082;2024-02-16T08:05:41;1.50;;;1.40;;
11171;SDS011;5642;50.830;12.082;2024-02-16T08:08:12;1.67;;;1.58;;
11171;SDS011;5642;50.830;12.082;2024-02-16T08:10:43;1.90;;;1.67;;
11171;SDS011;5642;50.830;12.082;2024-02-16T08:13:19;1.45;;;1.35;;
11171;SDS011;5642;50.830;12.082;2024-02-16T08:15:46;1.30;;;1.20;;
11171;SDS011;5642;50.830;12.082;2024-02-16T08:18:12;1.05;;;1.05;;
11171;SDS011;5642;50.830;12.082;2024-02-16T08:20:38;1.10;;;1.10;;
11171;SDS011;5642;50.830;12.082;2024-02-16T08:23:04;1.35;;;1.30;;
11171;SDS011;5642;50.830;12.082;2024-02-16T08:25:31;1.17;;;1.10;;
11171;SDS011;5642;50.830;12.082;2024-02-16T08:27:58;1.20;;;1.10;;
11171;SDS011;5642;50.830;12.082;2024-02-16T08:30:28;1.90;;;1.20;;
11171;SDS011;5642;50.830;12.082;2024-02-16T08:33:02;1.63;;;1.30;;
11171;SDS011;5642;50.830;12.082;2024-02-16T08:35:29;1.30;;;1.20;;
11171;SDS011;5642;50.830;12.082;2024-02-16T08:38:00;1.30;;;1.20;;
11171;SDS011;5642;50.830;12.082;2024-02-16T08:40:33;1.30;;;1.20;;
11171;SDS011;5642;50.830;12.082;2024-02-16T08:42:59;1.23;;;1.20;;
11171;SDS011;5642;50.830;12.082;2024-02-16T08:45:32;1.30;;;1.20;;
11171;SDS011;5642;50.830;12.082;2024-02-16T08:48:05;1.08;;;1.02;;
11171;SDS011;5642;50.830;12.082;2024-02-16T08:50:31;1.30;;;1.20;;
11171;SDS011;5642;50.830;12.082;2024-02-16T08:53:02;1.10;;;1.10;;
11171;SDS011;5642;50.830;12.082;2024-02-16T08:55:28;1.02;;;1.02;;
11171;SDS011;5642;50.830;12.082;2024-02-16T08:57:58;1.20;;;1.10;;
11171;SDS011;5642;50.830;12.082;2024-02-16T09:00:35;1.30;;;1.20;;
11171;SDS011;5642;50.830;12.082;2024-02-16T09:03:03;1.20;;;1.10;;
11171;SDS011;5642;50.830;12.082;2024-02-16T09:05:31;0.98;;;0.98;;
11171;SDS011;5642;50.830;12.082;2024-02-16T09:07:57;1.15;;;1.05;;
11171;SDS011;5642;50.830;12.082;2024-02-16T09:10:32;1.13;;;1.10;;
11171;SDS011;5642;50.830;12.082;2024-02-16T09:13:00;1.38;;;1.13;;
11171;SDS011;5642;50.830;12.082;2024-02-16T09:15:28;1.95;;;1.00;;
11171;SDS011;5642;50.830;12.082;2024-02-16T09:17:54;0.88;;;0.88;;
11171;SDS011;5642;50.830;12.082;2024-02-16T09:20:22;1.02;;;1.02;;
11171;SDS011;5642;50.830;12.082;2024-02-16T09:22:52;1.30;;;1.20;;
11171;SDS011;5642;50.830;12.082;2024-02-16T09:25:19;3.90;;;1.30;;
11171;SDS011;5642;50.830;12.082;2024-02-16T09:27:59;1.13;;;1.10;;
11171;SDS011;5642;50.830;12.082;2024-02-16T09:30:26;1.30;;;1.20;;
11171;SDS011;5642;50.830;12.082;2024-02-16T09:32:53;1.17;;;1.08;;
11171;SDS011;5642;50.830;12.082;2024-02-16T09:35:19;0.90;;;0.90;;
11171;SDS011;5642;50.830;12.082;2024-02-16T09:37:51;1.20;;;1.10;;
11171;SDS011;5642;50.830;12.082;2024-02-16T09:40:17;3.22;;;1.10;;
11171;SDS011;5642;50.830;12.082;2024-02-16T09:42:48;1.00;;;1.00;;
11171;SDS011;5642;50.830;12.082;2024-02-16T09:45:23;0.90;;;0.90;;
11171;SDS011;5642;50.830;12.082;2024-02-16T09:47:59;1.25;;;1.13;;
11171;SDS011;5642;50.830;12.082;2024-02-16T09:50:26;0.82;;;0.82;;
11171;SDS011;5642;50.830;12.082;2024-02-16T09:52:56;0.90;;;0.90;;
11171;SDS011;5642;50.830;12.082;2024-02-16T09:55:23;0.90;;;0.90;;
11171;SDS011;5642;50.830;12.082;2024-02-16T09:57:58;0.80;;;0.80;;
11171;SDS011;5642;50.830;12.082;2024-02-16T10:00:26;1.00;;;1.00;;
11171;SDS011;5642;50.830;12.082;2024-02-16T10:02:53;0.90;;;0.90;;
11171;SDS011;5642;50.830;12.082;2024-02-16T10:05:21;0.90;;;0.90;;
11171;SDS011;5642;50.830;12.082;2024-02-16T10:07:49;0.90;;;0.90;;
11171;SDS011;5642;50.830;12.082;2024-02-16T10:10:22;1.00;;;1.00;;
11171;SDS011;5642;50.830;12.082;2024-02-16T10:13:04;0.80;;;0.73;;
11171;SDS011;5642;50.830;12.082;2024-02-16T10:15:34;0.75;;;0.75;;
11171;SDS011;5642;50.830;12.082;2024-02-16T10:18:06;0.85;;;0.85;;
11171;SDS011;5642;50.830;12.082;2024-02-16T10:20:37;1.10;;;1.00;;
11171;SDS011;5642;50.830;12.082;2024-02-16T10:23:13;1.40;;;0.90;;
11171;SDS011;5642;50.830;12.082;2024-02-16T10:25:48;1.55;;;1.10;;
11171;SDS011;5642;50.830;12.082;2024-02-16T10:28:16;1.10;;;1.10;;
11171;SDS011;5642;50.830;12.082;2024-02-16T10:31:00;0.80;;;0.80;;
11171;SDS011;5642;50.830;12.082;2024-02-16T10:33:32;0.88;;;0.88;;
11171;SDS011;5642;50.830;12.082;2024-02-16T10:35:58;0.75;;;0.73;;
11171;SDS011;5642;50.830;12.082;2024-02-16T10:38:34;1.30;;;0.73;;
11171;SDS011;5642;50.830;12.082;2024-02-16T10:41:11;0.80;;;0.80;;
11171;SDS011;5642;50.830;12.082;2024-02-16T10:43:50;1.10;;;1.00;;
11171;SDS011;5642;50.830;12.082;2024-02-16T10:46:26;1.27;;;1.00;;
11171;SDS011;5642;50.830;12.082;2024-02-16T10:48:54;0.80;;;0.80;;
11171;SDS011;5642;50.830;12.082;2024-02-16T10:51:31;1.10;;;1.00;;
11171;SDS011;5642;50.830;12.082;2024-02-16T10:54:03;0.90;;;0.90;;
11171;SDS011;5642;50.830;12.082;2024-02-16T10:56:35;1.30;;;1.20;;
11171;SDS011;5642;50.830;12.082;2024-02-16T10:59:10;0.88;;;0.88;;
11171;SDS011;5642;50.830;12.082;2024-02-16T11:01:45;0.95;;;0.90;;
11171;SDS011;5642;50.830;12.082;2024-02-16T11:04:55;1.00;;;0.88;;
11171;SDS011;5642;50.830;12.082;2024-02-16T11:07:36;1.05;;;0.95;;
11171;SDS011;5642;50.830;12.082;2024-02-16T11:10:23;1.17;;;1.00;;
11171;SDS011;5642;50.830;12.082;2024-02-16T11:12:50;0.93;;;0.93;;
11171;SDS011;5642;50.830;12.082;2024-02-16T11:15:30;0.90;;;0.90;;
11171;SDS011;5642;50.830;12.082;2024-02-16T11:18:03;0.80;;;0.80;;
11171;SDS011;5642;50.830;12.082;2024-02-16T11:20:38;0.70;;;0.70;;
11171;SDS011;5642;50.830;12.082;2024-02-16T11:23:05;0.90;;;0.90;;
11171;SDS011;5642;50.830;12.082;2024-02-16T11:25:36;0.70;;;0.70;;
11171;SDS011;5642;50.830;12.082;2024-02-16T11:28:06;0.90;;;0.80;;
11171;SDS011;5642;50.830;12.082;2024-02-16T11:30:33;0.85;;;0.85;;
11171;SDS011;5642;50.830;12.082;2024-02-16T11:33:01;1.05;;;1.00;;
11171;SDS011;5642;50.830;12.082;2024-02-16T11:35:27;0.70;;;0.70;;
11171;SDS011;5642;50.830;12.082;2024-02-16T11:37:56;0.70;;;0.70;;
11171;SDS011;5642;50.830;12.082;2024-02-16T11:40:23;0.65;;;0.65;;
11171;SDS011;5642;50.830;12.082;2024-02-16T11:42:56;0.77;;;0.77;;
11171;SDS011;5642;50.830;12.082;2024-02-16T11:45:24;0.80;;;0.80;;
11171;SDS011;5642;50.830;12.082;2024-02-16T11:48:04;0.80;;;0.80;;
11171;SDS011;5642;50.830;12.082;2024-02-16T11:50:36;1.05;;;0.95;;
11171;SDS011;5642;50.830;12.082;2024-02-16T11:53:03;0.85;;;0.85;;
11171;SDS011;5642;50.830;12.082;2024-02-16T11:55:30;0.90;;;0.70;;
11171;SDS011;5642;50.830;12.082;2024-02-16T11:57:58;0.77;;;0.77;;
11171;SDS011;5642;50.830;12.082;2024-02-16T12:00:28;0.82;;;0.75;;
11171;SDS011;5642;50.830;12.082;2024-02-16T12:03:01;0.77;;;0.77;;
11171;SDS011;5642;50.830;12.082;2024-02-16T12:05:27;0.70;;;0.70;;
11171;SDS011;5642;50.830;12.082;2024-02-16T12:07:57;0.73;;;0.73;;
11171;SDS011;5642;50.830;12.082;2024-02-16T12:10:24;0.70;;;0.70;;
11171;SDS011;5642;50.830;12.082;2024-02-16T12:12:52;1.10;;;0.73;;
11171;SDS011;5642;50.830;12.082;2024-02-16T12:15:19;1.02;;;0.68;;
11171;SDS011;5642;50.830;12.082;2024-02-16T12:17:57;0.90;;;0.80;;
11171;SDS011;5642;50.830;12.082;2024-02-16T12:20:27;0.70;;;0.70;;
11171;SDS011;5642;50.830;12.082;2024-02-16T12:22:53;1.17;;;0.90;;
11171;SDS011;5642;50.830;12.082;2024-02-16T12:25:21;0.85;;;0.85;;
11171;SDS011;5642;50.830;12.082;2024-02-16T12:27:48;0.75;;;0.75;;
11171;SDS011;5642;50.830;12.082;2024-02-16T12:30:18;0.73;;;0.73;;
11171;SDS011;5642;50.830;12.082;2024-02-16T12:32:50;0.90;;;0.90;;
11171;SDS011;5642;50.830;12.082;2024-02-16T12:35:21;0.60;;;0.60;;
11171;SDS011;5642;50.830;12.082;2024-02-16T12:37:49;0.80;;;0.80;;
11171;SDS011;5642;50.830;12.082;2024-02-16T12:40:17;1.00;;;0.90;;
11171;SDS011;5642;50.830;12.082;2024-02-16T12:42:50;0.82;;;0.82;;
11171;SDS011;5642;50.830;12.082;2024-02-16T12:45:27;0.82;;;0.82;;
11171;SDS011;5642;50.830;12.082;2024-02-16T12:47:54;0.80;;;0.80;;
11171;SDS011;5642;50.830;12.082;2024-02-16T12:50:20;0.77;;;0.75;;
11171;SDS011;5642;50.830;12.082;2024-02-16T12:52:49;0.70;;;0.70;;
11171;SDS011;5642;50.830;12.082;2024-02-16T12:55:22;0.70;;;0.70;;
11171;SDS011;5642;50.830;12.082;2024-02-16T12:57:52;0.80;;;0.80;;
11171;SDS011;5642;50.830;12.082;2024-02-16T13:00:18;1.58;;;0.85;;
11171;SDS011;5642;50.830;12.082;2024-02-16T13:02:45;1.15;;;1.00;;
11171;SDS011;5642;50.830;12.082;2024-02-16T13:05:11;0.90;;;0.90;;
11171;SDS011;5642;50.830;12.082;2024-02-16T13:07:47;0.88;;;0.60;;
11171;SDS011;5642;50.830;12.082;2024-02-16T13:10:15;0.93;;;0.93;;
11171;SDS011;5642;50.830;12.082;2024-02-16T13:12:42;0.88;;;0.88;;
11171;SDS011;5642;50.830;12.082;2024-02-16T13:15:13;0.70;;;0.70;;
11171;SDS011;5642;50.830;12.082;2024-02-16T13:17:39;0.75;;;0.75;;
11171;SDS011;5642;50.830;12.082;2024-02-16T13:20:05;0.70;;;0.70;;
11171;SDS011;5642;50.830;12.082;2024-02-16T13:22:35;1.00;;;1.00;;
11171;SDS011;5642;50.830;12.082;2024-02-16T13:25:03;1.70;;;1.02;;
11171;SDS011;5642;50.830;12.082;2024-02-16T13:27:32;0.98;;;0.90;;
11171;SDS011;5642;50.830;12.082;2024-02-16T13:30:08;1.30;;;1.05;;
11171;SDS011;5642;50.830;12.082;2024-02-16T13:32:35;0.90;;;0.90;;
11171;SDS011;5642;50.830;12.082;2024-02-16T13:35:06;0.93;;;0.93;;
11171;SDS011;5642;50.830;12.082;2024-02-16T13:37:34;0.80;;;0.80;;
11171;SDS011;5642;50.830;12.082;2024-02-16T13:40:01;1.00;;;1.00;;
11171;SDS011;5642;50.830;12.082;2024-02-16T13:42:33;1.00;;;1.00;;
11171;SDS011;5642;50.830;12.082;2024-02-16T13:45:02;1.00;;;1.00;;
11171;SDS011;5642;50.830;12.082;2024-02-16T13:47:29;1.88;;;1.52;;
11171;SDS011;5642;50.830;12.082;2024-02-16T13:49:56;1.48;;;1.20;;
11171;SDS011;5642;50.830;12.082;2024-02-16T13:52:25;2.67;;;1.55;;
11171;SDS011;5642;50.830;12.082;2024-02-16T13:54:53;1.85;;;1.30;;
11171;SDS011;5642;50.830;12.082;2024-02-16T13:57:20;3.03;;;1.30;;
11171;SDS011;5642;50.830;12.082;2024-02-16T13:59:46;1.40;;;1.30;;
11171;SDS011;5642;50.830;12.082;2024-02-16T14:02:15;1.45;;;1.30;;
11171;SDS011;5642;50.830;12.082;2024-02-16T14:04:41;1.20;;;1.10;;
11171;SDS011;5642;50.830;12.082;2024-02-16T14:07:09;1.92;;;1.23;;
11171;SDS011;5642;50.830;12.082;2024-02-16T14:09:35;1.10;;;1.10;;
11171;SDS011;5642;50.830;12.082;2024-02-16T14:12:05;1.08;;;1.08;;
11171;SDS011;5642;50.830;12.082;2024-02-16T14:14:34;1.60;;;1.30;;
11171;SDS011;5642;50.830;12.082;2024-02-16T14:17:03;1.20;;;1.20;;
11171;SDS011;5642;50.830;12.082;2024-02-16T14:19:29;1.25;;;1.10;;
11171;SDS011;5642;50.830;12.082;2024-02-16T14:21:57;1.08;;;1.02;;
11171;SDS011;5642;50.830;12.082;2024-02-16T14:24:23;1.90;;;1.10;;
11171;SDS011;5642;50.830;12.082;2024-02-16T14:26:52;1.30;;;1.20;;
11171;SDS011;5642;50.830;12.082;2024-02-16T14:29:20;1.10;;;1.00;;
11171;SDS011;5642;50.830;12.082;2024-02-16T14:31:45;1.15;;;1.00;;
11171;SDS011;5642;50.830;12.082;2024-02-16T14:34:12;1.25;;;1.10;;
11171;SDS011;5642;50.830;12.082;2024-02-16T14:36:38;1.30;;;1.20;;
11171;SDS011;5642;50.830;12.082;2024-02-16T14:39:04;0.90;;;0.90;;
11171;SDS011;5642;50.830;12.082;2024-02-16T14:41:31;1.05;;;1.00;;
11171;SDS011;5642;50.830;12.082;2024-02-16T14:43:57;1.00;;;1.00;;
11171;SDS011;5642;50.830;12.082;2024-02-16T14:46:25;1.15;;;1.10;;
11171;SDS011;5642;50.830;12.082;2024-02-16T14:48:52;1.17;;;1.08;;
11171;SDS011;5642;50.830;12.082;2024-02-16T14:51:20;0.98;;;0.98;;
11171;SDS011;5642;50.830;12.082;2024-02-16T14:53:46;0.93;;;0.93;;
11171;SDS011;5642;50.830;12.082;2024-02-16T14:56:16;0.82;;;0.80;;
11171;SDS011;5642;50.830;12.082;2024-02-16T14:58:48;1.25;;;1.15;;
11171;SDS011;5642;50.830;12.082;2024-02-16T15:01:15;0.85;;;0.85;;
11171;SDS011;5642;50.830;12.082;2024-02-16T15:03:42;0.90;;;0.90;;